Meggett, South Carolina
Current Conditions -  °F | °C
As of 10:35 PM on Monday 20 Oct 2014 (Local Time) from KJZI Reporting Station
Broken Clouds Broken Clouds  
Wind Chill: 64°   Ceiling: 4600
Heat Index: 64°   Visibility: 10mi
Dew Point: 64°   Wind: 0mph
Humidity: 100%   Direction: NA
Pressure: 30.02"   Gusts: NA
Location:  32.7025°N, 80.284°W
Report Text: KJZI 210235Z AUTO 00000KT 10SM BKN046 BKN060 18/18 A3002 RMK A02 P000
Loading
Personal Weather Stations






























Interactive Weather Map
Tropical Storm Tracking
New forecast layout! Learn more

10-Day Weather Forecast

Advertisements
Track Severe Weather on mobile